Time;durP1;ratioP1;P1;durP2;ratioP2;P2;SDS_P1;SDS_P2;PMS_P1;PMS_P2;Temp;Humidity;BMP_temperature;BMP_pressure;BME280_temperature;BME280_humidity;BME280_pressure;Samples;Min_cycle;Max_cycle;Signal;HPM_P1;HPM_P2
2021/04/24 00:02:21;;;;;;;7.97;1.35;;;13.70;54.90;;;;;;4934583;29;20487;-81
2021/04/24 00:04:47;;;;;;;1.20;1.10;;;13.70;54.90;;;;;;4934954;29;20103;-82
2021/04/24 00:07:12;;;;;;;4.22;1.30;;;13.70;54.40;;;;;;4934510;29;20031;-83
2021/04/24 00:09:39;;;;;;;2.30;0.95;;;13.70;54.30;;;;;;4933969;29;20512;-82
2021/04/24 00:12:06;;;;;;;2.85;1.00;;;13.70;54.50;;;;;;4917175;29;20042;-81
2021/04/24 00:14:31;;;;;;;0.85;0.80;;;13.70;54.60;;;;;;4934664;29;20402;-83
2021/04/24 00:16:57;;;;;;;0.98;0.90;;;13.60;54.60;;;;;;4934500;29;20132;-82
2021/04/24 00:19:23;;;;;;;1.33;1.17;;;13.60;55.10;;;;;;4933995;29;20079;-83
2021/04/24 00:21:49;;;;;;;2.45;1.30;;;13.60;55.30;;;;;;4934457;29;20035;-81
2021/04/24 00:24:15;;;;;;;3.28;0.70;;;13.50;55.50;;;;;;4915557;29;20521;-82
2021/04/24 00:26:41;;;;;;;3.50;1.20;;;13.40;55.60;;;;;;4932296;29;20039;-81
2021/04/24 00:29:06;;;;;;;3.10;1.00;;;13.40;56.10;;;;;;4934210;29;20039;-82
2021/04/24 00:31:33;;;;;;;6.63;1.25;;;13.30;56.30;;;;;;4934148;29;20059;-81
2021/04/24 00:33:58;;;;;;;1.05;0.93;;;13.20;56.60;;;;;;4934307;29;20494;-81
2021/04/24 00:36:24;;;;;;;1.75;1.10;;;13.10;57.10;;;;;;4934009;29;20032;-81
2021/04/24 00:38:50;;;;;;;2.00;1.10;;;13.10;57.00;;;;;;4934040;29;20479;-82
2021/04/24 00:41:16;;;;;;;2.00;0.70;;;13.00;57.50;;;;;;4933625;29;20119;-82
2021/04/24 00:43:41;;;;;;;1.52;1.00;;;12.90;57.90;;;;;;4934515;29;20557;-82
2021/04/24 00:46:12;;;;;;;1.60;1.05;;;12.90;57.90;;;;;;4937635;29;20031;-82
2021/04/24 00:48:38;;;;;;;2.47;1.08;;;12.90;58.00;;;;;;4937745;29;20019;-81
2021/04/24 00:51:05;;;;;;;1.92;1.05;;;12.90;57.90;;;;;;4936544;29;20119;-81
2021/04/24 00:53:31;;;;;;;1.70;1.02;;;12.80;58.10;;;;;;4937429;29;20415;-82
2021/04/24 00:55:57;;;;;;;3.15;1.35;;;12.80;58.50;;;;;;4934535;29;20050;-82
2021/04/24 00:58:23;;;;;;;1.85;1.27;;;12.80;58.50;;;;;;4936455;29;20028;-82
2021/04/24 01:00:49;;;;;;;3.08;1.27;;;12.70;58.40;;;;;;4937677;29;20366;-82
2021/04/24 01:03:15;;;;;;;2.63;1.00;;;12.80;58.40;;;;;;4937470;29;20079;-81
2021/04/24 01:05:42;;;;;;;2.30;1.40;;;12.80;58.40;;;;;;4920393;29;20520;-81
2021/04/24 01:08:08;;;;;;;1.67;1.00;;;12.80;58.50;;;;;;4937229;29;20028;-82
2021/04/24 01:10:40;;;;;;;1.00;0.90;;;12.80;58.10;;;;;;4936674;29;20042;-82
2021/04/24 01:13:07;;;;;;;3.35;1.50;;;12.80;58.50;;;;;;4919815;29;20474;-82
2021/04/24 01:15:34;;;;;;;1.45;0.77;;;12.70;58.50;;;;;;4920110;29;20051;-81
2021/04/24 01:17:59;;;;;;;1.15;1.00;;;12.70;58.50;;;;;;4937355;29;20087;-81
2021/04/24 01:20:25;;;;;;;1.17;0.90;;;12.80;58.20;;;;;;4936901;29;20028;-81
2021/04/24 01:22:51;;;;;;;2.00;1.35;;;12.90;57.90;;;;;;4937004;29;20447;-81
2021/04/24 01:25:22;;;;;;;3.38;1.30;;;12.80;58.50;;;;;;4934674;29;20023;-80
2021/04/24 01:27:53;;;;;;;1.52;1.05;;;12.80;58.00;;;;;;4935225;29;20023;-82
2021/04/24 01:30:23;;;;;;;1.60;1.10;;;12.80;58.20;;;;;;4936851;29;20038;-82
2021/04/24 01:32:49;;;;;;;1.38;1.00;;;12.80;58.20;;;;;;4919675;29;20027;-81
2021/04/24 01:35:17;;;;;;;2.13;0.98;;;12.80;58.40;;;;;;4937128;29;20039;-81
2021/04/24 01:37:43;;;;;;;2.83;1.38;;;12.70;58.60;;;;;;4936594;29;20526;-82
2021/04/24 01:40:13;;;;;;;7.57;1.60;;;12.60;58.70;;;;;;4936414;29;20035;-82
2021/04/24 01:42:39;;;;;;;1.08;0.90;;;12.60;58.90;;;;;;4936269;29;20023;-81
2021/04/24 01:45:07;;;;;;;2.67;1.50;;;12.60;59.40;;;;;;4936908;29;20086;-81
2021/04/24 01:47:34;;;;;;;5.38;1.00;;;12.60;59.30;;;;;;4936770;29;20521;-82
2021/04/24 01:50:00;;;;;;;1.17;0.80;;;12.50;59.20;;;;;;4936672;29;20383;-82
2021/04/24 01:52:36;;;;;;;3.00;1.20;;;12.50;59.40;;;;;;4934911;29;20064;-82
2021/04/24 01:55:05;;;;;;;4.00;1.52;;;12.40;59.60;;;;;;4935743;29;20086;-81
2021/04/24 01:57:31;;;;;;;2.55;1.00;;;12.40;60.20;;;;;;4934852;29;20027;-82
2021/04/24 01:59:57;;;;;;;1.27;0.90;;;12.30;60.20;;;;;;4936443;29;20032;-81
2021/04/24 02:02:24;;;;;;;3.25;1.92;;;12.30;60.50;;;;;;4919181;29;20059;-82
2021/04/24 02:04:51;;;;;;;1.30;1.02;;;12.20;60.70;;;;;;4936453;29;20024;-82
2021/04/24 02:07:17;;;;;;;2.88;1.40;;;12.20;60.80;;;;;;4933564;29;20027;-82
2021/04/24 02:09:43;;;;;;;4.43;1.38;;;12.10;60.80;;;;;;4936000;29;20464;-80
2021/04/24 02:12:10;;;;;;;1.70;1.60;;;12.10;61.40;;;;;;4935857;29;20038;-81
2021/04/24 02:14:46;;;;;;;3.40;1.58;;;12.00;61.30;;;;;;4935132;29;20419;-81
2021/04/24 02:17:16;;;;;;;1.70;1.15;;;12.00;62.00;;;;;;4919119;29;20031;-82
2021/04/24 02:19:43;;;;;;;1.70;1.17;;;11.90;62.30;;;;;;4935996;29;20055;-82
2021/04/24 02:22:10;;;;;;;3.40;1.52;;;11.80;62.50;;;;;;4935966;29;20098;-82
2021/04/24 02:24:58;;;;;;;2.88;1.40;;;11.80;63.10;;;;;;4934464;29;20116;-81
2021/04/24 02:27:25;;;;;;;1.52;1.30;;;11.70;63.40;;;;;;4934131;29;20387;-81
2021/04/24 02:29:54;;;;;;;2.55;1.67;;;11.60;63.70;;;;;;4936017;29;20028;-82
2021/04/24 02:32:31;;;;;;;1.58;1.48;;;11.50;64.00;;;;;;4934349;29;20059;-82
2021/04/24 02:34:58;;;;;;;5.88;1.70;;;11.50;64.60;;;;;;4934554;29;20391;-81
2021/04/24 02:37:24;;;;;;;5.63;1.77;;;11.40;64.20;;;;;;4939155;29;20031;-82
2021/04/24 02:39:52;;;;;;;3.15;1.48;;;11.40;64.80;;;;;;4936188;29;20074;-81
2021/04/24 02:42:23;;;;;;;2.05;1.38;;;11.30;64.70;;;;;;4936243;29;20034;-82
2021/04/24 02:44:50;;;;;;;1.65;1.02;;;11.40;65.20;;;;;;4936438;29;20059;-82
2021/04/24 02:47:17;;;;;;;2.17;1.33;;;11.30;65.10;;;;;;4936599;29;20109;-82
2021/04/24 02:49:43;;;;;;;1.33;1.05;;;11.30;65.10;;;;;;4943986;29;20028;-81
2021/04/24 02:52:08;;;;;;;2.30;1.20;;;11.30;65.20;;;;;;4937150;29;20102;-81
2021/04/24 02:54:35;;;;;;;2.22;1.23;;;11.20;65.90;;;;;;4939233;29;20047;-82
2021/04/24 02:57:01;;;;;;;2.00;1.33;;;11.20;66.00;;;;;;4934396;29;20027;-82
2021/04/24 02:59:27;;;;;;;1.45;1.00;;;11.10;66.00;;;;;;4936015;29;20031;-81
2021/04/24 03:01:54;;;;;;;2.38;1.50;;;11.10;66.30;;;;;;4935614;29;20071;-82
2021/04/24 03:04:20;;;;;;;2.50;1.40;;;11.10;66.80;;;;;;4935514;29;20082;-81
2021/04/24 03:06:46;;;;;;;2.38;1.35;;;11.10;66.50;;;;;;4935609;29;20091;-81
2021/04/24 03:09:12;;;;;;;1.88;1.17;;;11.10;66.50;;;;;;4935218;29;20036;-82
2021/04/24 03:11:38;;;;;;;2.08;1.30;;;11.00;66.50;;;;;;4935270;29;20067;-82
2021/04/24 03:14:05;;;;;;;1.98;1.50;;;11.00;67.10;;;;;;4935033;29;20517;-82
2021/04/24 03:16:31;;;;;;;2.08;1.20;;;10.90;67.20;;;;;;4935121;29;20023;-81
2021/04/24 03:18:58;;;;;;;2.08;1.00;;;10.80;67.30;;;;;;4935105;29;20023;-81
2021/04/24 03:21:25;;;;;;;1.58;1.10;;;10.80;67.40;;;;;;4934837;29;20032;-82
2021/04/24 03:23:52;;;;;;;3.50;1.50;;;10.80;67.50;;;;;;4934445;29;20019;-82
2021/04/24 03:26:18;;;;;;;1.98;1.58;;;10.90;67.40;;;;;;4920306;29;20056;-81
2021/04/24 03:28:44;;;;;;;4.00;1.10;;;10.90;67.40;;;;;;4934058;29;20038;-81
2021/04/24 03:31:10;;;;;;;2.22;1.38;;;10.80;67.70;;;;;;4934785;29;20031;-81
2021/04/24 03:33:36;;;;;;;7.72;1.42;;;10.80;67.60;;;;;;4931869;29;20035;-81
2021/04/24 03:36:02;;;;;;;1.52;1.42;;;10.90;67.60;;;;;;4917730;29;20031;-82
2021/04/24 03:38:28;;;;;;;2.53;1.33;;;10.90;67.50;;;;;;4934662;29;20059;-81
2021/04/24 03:40:54;;;;;;;1.20;1.10;;;10.80;67.90;;;;;;4917269;29;20510;-82
2021/04/24 03:43:19;;;;;;;0.93;0.90;;;10.80;68.10;;;;;;4934390;29;20032;-82
2021/04/24 03:45:45;;;;;;;2.72;1.30;;;10.70;68.40;;;;;;4935056;29;20032;-81
2021/04/24 03:48:11;;;;;;;1.50;1.15;;;10.70;68.40;;;;;;4934548;29;20031;-82
2021/04/24 03:50:37;;;;;;;3.30;1.50;;;10.70;68.60;;;;;;4924848;29;20019;-82
2021/04/24 03:53:03;;;;;;;1.40;1.30;;;10.70;68.70;;;;;;4924581;29;20388;-81
2021/04/24 03:55:28;;;;;;;1.50;1.00;;;10.60;68.80;;;;;;4934206;29;20051;-80
2021/04/24 03:57:55;;;;;;;2.33;1.77;;;10.60;68.80;;;;;;4916617;29;20028;-81
2021/04/24 04:00:24;;;;;;;2.83;1.25;;;10.60;68.70;;;;;;4934580;29;20075;-82
2021/04/24 04:02:51;;;;;;;3.65;2.00;;;10.60;68.90;;;;;;4934400;29;20039;-82
2021/04/24 04:05:18;;;;;;;3.50;1.58;;;10.60;69.10;;;;;;4934556;29;20028;-81
2021/04/24 04:07:45;;;;;;;4.13;1.20;;;10.50;69.30;;;;;;4934505;29;20502;-82
2021/04/24 04:10:13;;;;;;;2.42;1.30;;;10.50;69.40;;;;;;4933935;29;20024;-81
2021/04/24 04:12:38;;;;;;;3.63;1.40;;;10.40;69.60;;;;;;4934154;29;20024;-81
2021/04/24 04:15:06;;;;;;;1.45;1.35;;;10.30;70.00;;;;;;4934324;29;20456;-81
2021/04/24 04:17:32;;;;;;;2.78;1.58;;;10.30;70.10;;;;;;4917713;29;20032;-81
2021/04/24 04:19:58;;;;;;;1.42;1.33;;;10.30;70.30;;;;;;4937114;29;20402;-81
2021/04/24 04:22:25;;;;;;;1.40;1.30;;;10.20;70.50;;;;;;4938013;29;20039;-81
2021/04/24 04:24:51;;;;;;;5.55;1.00;;;10.30;70.30;;;;;;4936745;29;20059;-81
2021/04/24 04:27:16;;;;;;;2.40;1.75;;;10.20;70.30;;;;;;4935067;29;20102;-82
2021/04/24 04:29:42;;;;;;;3.22;1.63;;;10.30;70.20;;;;;;4937992;29;20067;-82
2021/04/24 04:32:08;;;;;;;7.57;1.50;;;10.30;69.90;;;;;;4938302;29;20036;-81
2021/04/24 04:34:33;;;;;;;3.22;1.45;;;10.30;69.80;;;;;;4936076;29;20035;-81
2021/04/24 04:36:59;;;;;;;4.35;1.77;;;10.40;69.80;;;;;;4937836;29;20066;-82
2021/04/24 04:39:25;;;;;;;2.70;1.30;;;10.40;69.70;;;;;;4937292;29;20514;-81
2021/04/24 04:41:50;;;;;;;1.00;1.00;;;10.40;69.40;;;;;;4937141;29;20039;-81
2021/04/24 04:44:16;;;;;;;2.90;1.60;;;10.40;69.60;;;;;;4920029;29;20093;-81
2021/04/24 04:46:42;;;;;;;1.60;1.50;;;10.40;69.10;;;;;;4937852;29;20020;-82
2021/04/24 04:49:07;;;;;;;1.77;1.25;;;10.40;69.50;;;;;;4936601;29;20032;-81
2021/04/24 04:51:33;;;;;;;1.63;1.30;;;10.30;69.80;;;;;;4928609;29;20043;-82
2021/04/24 04:53:59;;;;;;;4.35;2.00;;;10.40;69.80;;;;;;4937067;29;20038;-81
2021/04/24 04:56:25;;;;;;;4.70;2.03;;;10.40;69.60;;;;;;4918784;29;20052;-81
2021/04/24 04:58:51;;;;;;;2.47;1.52;;;10.40;69.60;;;;;;4937039;29;20019;-81
2021/04/24 05:01:18;;;;;;;6.78;1.52;;;10.30;70.30;;;;;;4937703;29;20032;-81
2021/04/24 05:03:44;;;;;;;1.83;1.33;;;10.30;70.70;;;;;;4937151;29;20391;-81
2021/04/24 05:06:09;;;;;;;3.97;1.58;;;10.30;70.70;;;;;;4937538;29;20031;-82
2021/04/24 05:08:36;;;;;;;1.67;1.58;;;10.20;71.20;;;;;;4936976;29;20111;-81
2021/04/24 05:11:03;;;;;;;4.72;1.27;;;10.10;71.40;;;;;;4934468;29;20059;-81
2021/04/24 05:13:29;;;;;;;2.42;1.88;;;10.10;71.50;;;;;;4935920;29;20380;-81
2021/04/24 05:15:55;;;;;;;1.80;1.70;;;10.10;71.40;;;;;;4937390;29;20028;-81
2021/04/24 05:18:21;;;;;;;10.52;2.17;;;10.10;71.80;;;;;;4937235;29;20034;-81
2021/04/24 05:20:47;;;;;;;4.55;1.90;;;10.10;71.80;;;;;;4937142;29;20028;-82
2021/04/24 05:23:13;;;;;;;4.78;1.40;;;10.10;72.30;;;;;;4919798;29;20372;-81
2021/04/24 05:25:39;;;;;;;2.38;1.60;;;10.10;72.20;;;;;;4936158;29;20031;-81
2021/04/24 05:28:04;;;;;;;1.70;1.58;;;10.10;72.10;;;;;;4933434;29;20036;-81
2021/04/24 05:30:30;;;;;;;4.22;1.60;;;10.10;72.40;;;;;;4936023;29;20069;-82
2021/04/24 05:32:57;;;;;;;2.35;1.38;;;10.10;72.20;;;;;;4934865;29;20032;-82
2021/04/24 05:35:24;;;;;;;3.60;1.33;;;10.00;72.60;;;;;;4936720;29;20119;-81
2021/04/24 05:37:49;;;;;;;2.58;1.63;;;10.00;72.80;;;;;;4936777;29;20434;-81
2021/04/24 05:40:16;;;;;;;3.30;1.83;;;10.10;72.90;;;;;;4936370;29;20024;-81
2021/04/24 05:42:41;;;;;;;2.67;1.50;;;10.10;72.80;;;;;;4919033;29;20084;-81
2021/04/24 05:45:11;;;;;;;5.60;1.65;;;10.10;72.90;;;;;;4935315;29;20035;-82
2021/04/24 05:47:38;;;;;;;6.20;1.38;;;10.20;72.50;;;;;;4934332;29;20386;-82
2021/04/24 05:50:06;;;;;;;6.80;1.88;;;10.20;72.30;;;;;;4936438;29;20028;-81
2021/04/24 05:52:32;;;;;;;6.63;2.05;;;10.20;72.30;;;;;;4937280;29;20087;-82
2021/04/24 05:54:58;;;;;;;3.05;1.42;;;10.30;72.50;;;;;;4935845;29;20491;-82
2021/04/24 05:57:24;;;;;;;2.03;1.60;;;10.30;72.50;;;;;;4935183;29;20035;-82
2021/04/24 05:59:49;;;;;;;3.65;1.38;;;10.30;72.50;;;;;;4936538;29;20035;-82
2021/04/24 06:02:15;;;;;;;2.13;1.52;;;10.30;72.50;;;;;;4936520;29;20024;-82
2021/04/24 06:04:40;;;;;;;1.95;1.75;;;10.30;72.40;;;;;;4936318;29;20407;-82
2021/04/24 06:07:09;;;;;;;1.77;1.25;;;10.30;72.40;;;;;;4936401;29;20027;-81
2021/04/24 06:09:35;;;;;;;2.95;1.60;;;10.40;72.80;;;;;;4933104;29;20497;-82
2021/04/24 06:12:00;;;;;;;4.25;2.00;;;10.40;72.90;;;;;;4935555;29;20035;-82
2021/04/24 06:14:26;;;;;;;2.40;1.30;;;10.50;72.40;;;;;;4936139;29;20035;-82
2021/04/24 06:16:52;;;;;;;2.35;1.80;;;10.50;72.10;;;;;;4936141;29;20034;-82
2021/04/24 06:19:17;;;;;;;5.00;1.75;;;10.50;72.10;;;;;;4936177;29;20034;-81
2021/04/24 06:21:43;;;;;;;2.63;1.77;;;10.60;72.20;;;;;;4936207;29;20019;-82
2021/04/24 06:24:09;;;;;;;5.47;1.77;;;10.60;72.10;;;;;;4935092;29;20241;-82
2021/04/24 06:26:35;;;;;;;3.55;2.03;;;10.70;72.20;;;;;;4933886;29;20019;-82
2021/04/24 06:29:00;;;;;;;2.38;1.70;;;10.80;72.20;;;;;;4935116;29;20535;-82
2021/04/24 06:31:26;;;;;;;7.28;2.05;;;10.90;72.00;;;;;;4935894;29;20031;-82
2021/04/24 06:33:51;;;;;;;3.55;1.98;;;11.00;71.60;;;;;;4918549;29;20501;-82
2021/04/24 06:36:17;;;;;;;1.63;1.40;;;11.10;71.50;;;;;;4918524;29;20456;-82
2021/04/24 06:38:44;;;;;;;3.95;2.15;;;11.20;71.20;;;;;;4935501;29;20503;-82
2021/04/24 06:41:10;;;;;;;2.28;1.85;;;11.30;71.40;;;;;;4918051;29;20028;-81
2021/04/24 06:43:36;;;;;;;2.75;1.85;;;11.50;71.00;;;;;;4918183;29;20110;-82
2021/04/24 06:46:02;;;;;;;1.75;1.58;;;11.60;71.30;;;;;;4935437;29;20131;-82
2021/04/24 06:48:27;;;;;;;2.85;1.60;;;11.80;70.90;;;;;;4935639;29;20071;-82
2021/04/24 06:50:56;;;;;;;4.03;2.05;;;11.90;69.90;;;;;;4918322;29;20070;-82
2021/04/24 06:53:22;;;;;;;2.50;1.60;;;12.20;69.80;;;;;;4935202;29;20074;-82
2021/04/24 06:55:49;;;;;;;2.33;1.45;;;12.40;67.70;;;;;;4935120;29;20058;-81
2021/04/24 06:58:15;;;;;;;1.23;1.13;;;12.70;66.20;;;;;;4934435;29;20035;-82
2021/04/24 07:00:41;;;;;;;2.17;0.98;;;12.90;63.90;;;;;;4935344;29;20423;-82
2021/04/24 07:03:06;;;;;;;2.88;1.60;;;13.10;63.20;;;;;;4935332;29;20028;-82
2021/04/24 07:05:32;;;;;;;1.58;1.13;;;13.40;62.20;;;;;;4933830;29;20134;-83
2021/04/24 07:07:57;;;;;;;2.13;1.23;;;13.60;61.40;;;;;;4935213;29;20027;-82
2021/04/24 07:10:23;;;;;;;2.13;1.35;;;13.70;60.10;;;;;;4934150;29;20042;-82
2021/04/24 07:12:49;;;;;;;1.13;1.02;;;13.90;60.70;;;;;;4935338;29;20039;-81
2021/04/24 07:15:15;;;;;;;2.08;1.48;;;14.10;59.30;;;;;;4934876;29;20032;-82
2021/04/24 07:17:41;;;;;;;1.23;1.13;;;14.30;58.00;;;;;;4935346;29;20119;-83
2021/04/24 07:20:08;;;;;;;2.38;1.13;;;14.50;57.80;;;;;;4935076;29;20553;-82
2021/04/24 07:22:33;;;;;;;1.05;0.95;;;14.70;56.50;;;;;;4935152;29;20494;-81
2021/04/24 07:24:59;;;;;;;1.30;1.17;;;14.90;56.00;;;;;;4933719;29;20023;-82
2021/04/24 07:27:25;;;;;;;2.45;1.30;;;15.10;54.10;;;;;;4932851;29;20043;-82
2021/04/24 07:29:50;;;;;;;1.17;1.08;;;15.30;53.80;;;;;;4934610;29;20502;-82
2021/04/24 07:32:16;;;;;;;2.28;1.38;;;15.40;54.00;;;;;;4935032;29;20031;-83
2021/04/24 07:34:41;;;;;;;2.42;1.00;;;15.60;55.00;;;;;;4934565;29;20023;-82
2021/04/24 07:37:07;;;;;;;1.58;1.17;;;15.80;54.00;;;;;;4917707;29;20035;-82
2021/04/24 07:39:33;;;;;;;6.28;0.95;;;16.00;52.90;;;;;;4934050;29;20031;-82
2021/04/24 07:41:59;;;;;;;1.65;1.40;;;16.10;53.40;;;;;;4917579;29;20027;-83
2021/04/24 07:44:25;;;;;;;1.23;1.10;;;16.30;52.90;;;;;;4934524;29;20015;-82
2021/04/24 07:46:51;;;;;;;2.88;1.30;;;16.40;51.90;;;;;;4934601;29;20042;-82
2021/04/24 07:49:17;;;;;;;4.45;1.60;;;16.70;51.40;;;;;;4932379;29;20450;-82
2021/04/24 07:51:43;;;;;;;3.28;1.42;;;17.00;50.00;;;;;;4927477;29;20059;-82
2021/04/24 07:54:12;;;;;;;1.27;1.05;;;17.20;50.50;;;;;;4933523;29;20028;-82
2021/04/24 07:56:37;;;;;;;1.33;1.23;;;17.80;47.90;;;;;;4916203;29;20143;-82
2021/04/24 07:59:03;;;;;;;2.13;1.45;;;19.70;44.20;;;;;;4917199;29;20111;-83
2021/04/24 08:01:29;;;;;;;1.70;1.00;;;23.00;36.50;;;;;;4934942;29;20431;-82
2021/04/24 08:03:55;;;;;;;1.27;1.20;;;25.30;32.00;;;;;;4934618;29;20027;-83
2021/04/24 08:06:20;;;;;;;1.58;1.48;;;26.50;29.30;;;;;;4934555;29;20533;-83
2021/04/24 08:08:46;;;;;;;8.38;1.20;;;27.40;29.00;;;;;;4934213;29;20580;-82
2021/04/24 08:11:12;;;;;;;1.95;1.30;;;28.40;27.80;;;;;;4934660;29;20140;-83
2021/04/24 08:13:38;;;;;;;1.50;1.40;;;28.30;26.70;;;;;;4933207;29;20111;-83
2021/04/24 08:16:03;;;;;;;2.42;1.35;;;28.30;25.60;;;;;;4934532;29;20554;-83
2021/04/24 08:18:29;;;;;;;1.70;1.60;;;28.30;25.80;;;;;;4934550;29;20035;-84
2021/04/24 08:20:55;;;;;;;3.58;1.88;;;28.30;25.50;;;;;;4934650;29;20028;-84
2021/04/24 08:23:20;;;;;;;1.98;1.70;;;28.60;25.60;;;;;;4933778;29;20495;-82
2021/04/24 08:25:46;;;;;;;2.65;1.95;;;28.70;25.30;;;;;;4932910;29;20388;-84
2021/04/24 08:28:11;;;;;;;2.20;1.92;;;28.30;25.40;;;;;;4931831;29;20028;-84
2021/04/24 08:30:37;;;;;;;1.98;1.88;;;27.70;25.80;;;;;;4934632;29;20038;-82
2021/04/24 08:33:05;;;;;;;1.90;1.80;;;27.90;25.90;;;;;;4917616;29;20024;-84
2021/04/24 08:35:30;;;;;;;1.80;1.70;;;28.60;26.50;;;;;;4927941;29;20396;-83
2021/04/24 08:37:56;;;;;;;2.00;1.90;;;28.80;25.20;;;;;;4933992;29;20028;-82
2021/04/24 08:40:22;;;;;;;2.30;2.10;;;28.50;25.10;;;;;;4934083;29;20114;-82
2021/04/24 08:42:48;;;;;;;4.35;2.10;;;30.00;25.10;;;;;;4933974;29;20028;-82
2021/04/24 08:45:16;;;;;;;1.95;1.85;;;30.20;24.80;;;;;;4917061;29;20063;-80
2021/04/24 08:47:49;;;;;;;2.25;2.15;;;30.10;24.00;;;;;;4934001;29;20020;-81
2021/04/24 08:50:18;;;;;;;2.55;2.35;;;30.10;24.20;;;;;;4934115;29;20510;-81
2021/04/24 08:52:44;;;;;;;1.65;1.65;;;30.70;23.90;;;;;;4934355;29;20357;-82
2021/04/24 08:55:22;;;;;;;2.10;1.90;;;31.00;23.30;;;;;;4933715;29;20056;-80
2021/04/24 08:57:48;;;;;;;2.50;2.40;;;31.70;23.20;;;;;;4933090;29;20036;-82
2021/04/24 09:00:16;;;;;;;3.35;2.33;;;32.30;22.90;;;;;;4934121;29;20042;-81
2021/04/24 09:02:45;;;;;;;2.38;2.17;;;31.70;22.80;;;;;;4917284;29;20032;-80
2021/04/24 09:05:14;;;;;;;2.10;2.00;;;32.00;22.90;;;;;;4935218;29;20434;-82
2021/04/24 09:07:40;;;;;;;2.58;2.30;;;31.80;22.20;;;;;;4937090;29;20455;-81
2021/04/24 09:10:09;;;;;;;2.40;2.30;;;31.60;22.40;;;;;;4935230;29;20031;-82
2021/04/24 09:12:39;;;;;;;2.45;2.25;;;32.00;23.10;;;;;;4926806;29;20050;-80
2021/04/24 09:15:23;;;;;;;2.65;2.15;;;32.40;22.50;;;;;;4937437;29;20075;-81
2021/04/24 09:17:56;;;;;;;2.55;2.35;;;32.50;22.00;;;;;;4937485;29;20023;-81
2021/04/24 09:20:24;;;;;;;2.33;2.22;;;32.20;22.90;;;;;;4937181;29;20031;-80
2021/04/24 09:23:13;;;;;;;2.33;2.22;;;32.50;22.60;;;;;;4937251;29;20474;-82
2021/04/24 09:25:56;;;;;;;2.30;2.10;;;33.00;22.30;;;;;;4936162;29;20023;-81
2021/04/24 09:28:31;;;;;;;2.60;2.50;;;33.20;22.40;;;;;;4935836;29;20427;-81
2021/04/24 09:31:01;;;;;;;2.80;2.60;;;33.50;22.90;;;;;;4936079;29;20028;-80
2021/04/24 09:33:32;;;;;;;2.63;2.42;;;33.00;22.60;;;;;;4937111;29;20023;-81
2021/04/24 09:35:58;;;;;;;2.47;2.38;;;33.00;22.90;;;;;;4936635;29;20032;-81
2021/04/24 09:38:28;;;;;;;2.70;2.50;;;33.20;22.80;;;;;;4936208;29;20035;-80
2021/04/24 09:41:33;;;;;;;5.15;2.50;;;32.60;22.00;;;;;;4918725;29;20053;-79
2021/04/24 09:44:08;;;;;;;2.40;2.30;;;32.00;22.00;;;;;;4841284;29;20026;-80
2021/04/24 09:46:53;;;;;;;2.50;2.30;;;32.10;22.80;;;;;;4841090;29;20046;-81
2021/04/24 09:49:27;;;;;;;2.75;2.30;;;31.90;22.70;;;;;;4840391;29;20026;-80
2021/04/24 09:52:00;;;;;;;3.50;2.10;;;32.00;22.50;;;;;;4841002;29;20110;-80
2021/04/24 09:54:43;;;;;;;2.55;2.35;;;32.20;22.70;;;;;;4840759;29;20074;-80
2021/04/24 09:57:12;;;;;;;2.40;2.20;;;32.60;22.50;;;;;;4839344;29;20041;-80
2021/04/24 10:00:00;;;;;;;5.28;2.53;;;32.50;22.00;;;;;;4840961;29;20045;-80
2021/04/24 10:02:40;;;;;;;6.50;2.67;;;32.80;22.40;;;;;;4840877;29;20070;-80
2021/04/24 10:05:15;;;;;;;2.70;2.50;;;32.90;21.90;;;;;;4840634;29;20457;-80
2021/04/24 10:07:52;;;;;;;2.55;2.38;;;33.30;22.30;;;;;;4840470;29;20506;-80
2021/04/24 10:10:30;;;;;;;2.30;2.20;;;32.60;22.10;;;;;;4840185;29;20030;-81
2021/04/24 10:13:03;;;;;;;5.20;2.60;;;32.90;22.60;;;;;;4840864;29;20494;-80
2021/04/24 10:15:40;;;;;;;2.42;2.33;;;32.80;22.90;;;;;;4840751;29;20406;-81
2021/04/24 10:18:07;;;;;;;2.15;2.05;;;32.40;22.10;;;;;;4895584;29;20497;-80
2021/04/24 10:20:34;;;;;;;2.22;2.13;;;33.00;22.20;;;;;;4935727;29;20031;-80
2021/04/24 10:23:06;;;;;;;2.55;2.30;;;33.20;22.10;;;;;;4935915;29;20036;-81
2021/04/24 10:25:32;;;;;;;2.58;2.38;;;33.50;21.90;;;;;;4934965;29;20024;-81
2021/04/24 10:27:58;;;;;;;2.35;2.25;;;33.30;21.80;;;;;;4917349;29;20525;-81
2021/04/24 10:30:25;;;;;;;1.98;1.83;;;33.40;21.50;;;;;;4934958;29;20031;-80
2021/04/24 10:32:52;;;;;;;4.25;1.98;;;33.30;22.10;;;;;;4936050;29;20076;-80
2021/04/24 10:35:19;;;;;;;2.10;2.00;;;33.30;22.10;;;;;;4918723;29;20031;-80
2021/04/24 10:37:46;;;;;;;2.13;2.03;;;32.80;21.70;;;;;;4935694;29;20035;-80
2021/04/24 10:40:13;;;;;;;2.05;1.80;;;32.70;21.50;;;;;;4935313;29;20103;-80
2021/04/24 10:42:40;;;;;;;4.07;3.13;;;32.50;22.20;;;;;;4935397;29;20031;-79
2021/04/24 10:45:07;;;;;;;1.77;1.67;;;32.70;22.40;;;;;;4935679;29;20031;-80
2021/04/24 10:50:16;;;;;;;1.50;1.50;;;32.60;21.50;;;;;;4927269;29;20051;-80
2021/04/24 10:52:44;;;;;;;1.60;1.50;;;32.50;22.40;;;;;;4933254;29;20036;-80
2021/04/24 10:55:13;;;;;;;1.67;1.58;;;32.80;21.90;;;;;;4917904;29;20051;-80
2021/04/24 10:57:39;;;;;;;2.08;1.55;;;32.80;21.90;;;;;;4934397;29;20031;-80
2021/04/24 11:00:10;;;;;;;3.67;1.77;;;33.00;21.90;;;;;;4935290;29;20050;-79
2021/04/24 11:02:40;;;;;;;;;;;32.50;22.40;;;;;;4918808;29;20028;-80
2021/04/24 11:05:26;;;;;;;2.17;1.98;;;32.50;21.90;;;;;;4935008;29;20343;-80
2021/04/24 11:08:20;;;;;;;2.80;1.65;;;32.50;21.60;;;;;;4934819;29;20027;-80
2021/04/24 11:10:47;;;;;;;6.80;2.22;;;32.60;22.40;;;;;;4934289;29;20030;-79
2021/04/24 11:13:14;;;;;;;1.85;1.60;;;32.10;22.70;;;;;;4933784;29;20063;-79
2021/04/24 11:15:42;;;;;;;3.63;1.60;;;32.10;22.80;;;;;;4917995;29;20024;-80
2021/04/24 11:18:10;;;;;;;1.48;1.40;;;32.20;23.00;;;;;;4935213;29;20114;-80
2021/04/24 11:20:45;;;;;;;1.30;1.23;;;32.10;22.90;;;;;;4935065;29;20483;-81
2021/04/24 11:23:29;;;;;;;5.03;1.58;;;31.90;21.80;;;;;;4934489;29;20063;-80
2021/04/24 11:25:55;;;;;;;1.98;1.48;;;32.00;22.80;;;;;;4934184;29;20035;-79
2021/04/24 11:28:22;;;;;;;6.93;1.30;;;31.50;22.10;;;;;;4932791;29;20114;-80
2021/04/24 11:30:55;;;;;;;7.15;0.98;;;31.00;23.10;;;;;;4933774;29;20546;-78
2021/04/24 11:33:33;;;;;;;1.58;1.20;;;30.60;23.50;;;;;;4935045;29;20063;-79
2021/04/24 11:36:17;;;;;;;1.40;1.08;;;30.40;23.70;;;;;;4932149;29;20039;-80
2021/04/24 11:38:55;;;;;;;1.95;1.73;;;30.10;23.60;;;;;;4934611;29;20024;-79
2021/04/24 11:41:44;;;;;;;1.50;0.90;;;30.10;22.90;;;;;;4934298;29;20034;-80
2021/04/24 11:44:21;;;;;;;1.20;1.10;;;29.90;23.90;;;;;;4934640;29;20032;-79
2021/04/24 11:46:54;;;;;;;0.90;0.90;;;29.80;24.70;;;;;;4931679;29;20479;-80
2021/04/24 11:49:24;;;;;;;2.17;1.25;;;30.00;23.20;;;;;;4914926;29;20454;-80
2021/04/24 11:51:55;;;;;;;1.05;0.88;;;29.80;23.00;;;;;;4928435;29;20782;-79
2021/04/24 11:54:38;;;;;;;1.33;1.20;;;30.00;25.50;;;;;;4934474;29;20034;-80
2021/04/24 11:57:08;;;;;;;1.00;1.00;;;29.90;23.10;;;;;;4932487;29;20530;-81
2021/04/24 11:59:36;;;;;;;0.70;0.70;;;29.80;24.10;;;;;;4934453;29;20115;-81
2021/04/24 12:02:17;;;;;;;0.90;0.90;;;29.30;24.30;;;;;;4934738;29;20083;-81
2021/04/24 12:04:44;;;;;;;1.13;0.93;;;28.70;24.80;;;;;;4934690;29;20145;-81
2021/04/24 12:07:13;;;;;;;0.70;0.70;;;28.40;25.00;;;;;;4934201;29;20036;-81
2021/04/24 12:10:05;;;;;;;2.25;0.90;;;28.50;25.50;;;;;;4934273;29;20119;-82
2021/04/24 12:12:35;;;;;;;5.47;0.93;;;28.50;24.50;;;;;;4921117;29;20049;-82
2021/04/24 12:15:12;;;;;;;0.88;0.88;;;28.50;24.80;;;;;;4934385;29;20039;-81
2021/04/24 12:17:51;;;;;;;1.35;0.73;;;28.70;25.10;;;;;;4934643;29;20066;-82
2021/04/24 12:20:23;;;;;;;0.90;0.90;;;28.70;23.80;;;;;;4934201;29;20039;-81
2021/04/24 12:22:50;;;;;;;1.25;1.15;;;28.60;23.80;;;;;;4934462;29;20030;-79
2021/04/24 12:25:18;;;;;;;0.75;0.65;;;29.60;23.70;;;;;;4916290;29;20031;-78
2021/04/24 12:27:45;;;;;;;1.58;1.08;;;29.80;24.80;;;;;;4932886;29;20028;-81
2021/04/24 12:30:36;;;;;;;0.88;0.88;;;29.30;22.90;;;;;;4934281;29;20034;-81
2021/04/24 12:33:20;;;;;;;1.35;0.90;;;29.00;23.80;;;;;;4933147;29;20035;-80
2021/04/24 12:35:56;;;;;;;1.08;0.68;;;28.70;25.50;;;;;;4933815;29;20152;-81
2021/04/24 12:38:28;;;;;;;0.80;0.80;;;28.60;23.20;;;;;;4933931;29;20023;-80
2021/04/24 12:41:02;;;;;;;4.47;0.90;;;29.00;23.40;;;;;;4936164;29;20046;-80
2021/04/24 12:43:40;;;;;;;0.80;0.80;;;29.10;23.60;;;;;;4937818;29;20028;-82
2021/04/24 12:46:07;;;;;;;1.35;0.82;;;28.60;22.50;;;;;;4937768;29;20023;-81
2021/04/24 12:48:34;;;;;;;0.65;0.65;;;28.70;23.10;;;;;;4937861;29;20031;-80
2021/04/24 12:51:01;;;;;;;1.45;0.80;;;28.40;23.90;;;;;;4936929;29;20040;-81
2021/04/24 12:53:41;;;;;;;0.88;0.82;;;28.40;22.40;;;;;;4937552;29;20046;-81
2021/04/24 12:56:10;;;;;;;3.50;1.08;;;28.20;22.20;;;;;;4936147;29;20055;-80
2021/04/24 12:58:40;;;;;;;1.08;0.70;;;28.10;22.70;;;;;;4936422;29;20024;-81